Time;durP1;ratioP1;P1;durP2;ratioP2;P2;SDS_P1;SDS_P2;PMS_P1;PMS_P2;Temp;Humidity;BMP_temperature;BMP_pressure;BME280_temperature;BME280_humidity;BME280_pressure;Samples;Min_cycle;Max_cycle;Signal;HPM_P1;HPM_P2
2023/08/20 00:01:21;;;;;;;;;3.00;2.00;;;;;25.48;48.48;101505.44;5080801;28;45228;-65
2023/08/20 00:03:48;;;;;;;;;4.00;3.50;;;;;25.43;48.65;101503.06;5081719;27;45314;-65
2023/08/20 00:06:13;;;;;;;;;4.75;4.25;;;;;25.40;48.08;101497.00;5081745;27;45502;-65
2023/08/20 00:08:39;;;;;;;;;5.50;3.50;;;;;25.34;48.43;101498.22;5076049;27;45242;-66
2023/08/20 00:11:05;;;;;;;;;4.25;3.00;;;;;25.36;48.34;101500.81;5073036;28;45510;-65
2023/08/20 00:13:31;;;;;;;;;3.75;3.00;;;;;25.35;48.49;101516.09;5080453;28;45266;-66
2023/08/20 00:15:56;;;;;;;;;2.00;2.00;;;;;25.31;48.58;101507.38;5081467;27;45407;-66
2023/08/20 00:18:22;;;;;;;;;2.50;2.00;;;;;25.29;47.73;101509.28;5081392;28;45240;-65
2023/08/20 00:20:47;;;;;;;;;2.00;1.75;;;;;25.25;47.97;101510.44;5082116;27;45259;-65
2023/08/20 00:23:13;;;;;;;;;4.25;3.00;;;;;25.22;48.20;101504.41;5081226;28;45359;-65
2023/08/20 00:25:38;;;;;;;;;3.00;3.00;;;;;25.17;47.84;101499.34;5080024;28;47217;-65
2023/08/20 00:28:04;;;;;;;;;3.25;3.00;;;;;25.14;48.01;101502.19;5081556;27;45240;-66
2023/08/20 00:30:29;;;;;;;;;3.00;3.00;;;;;25.13;47.80;101511.22;5080378;28;45366;-65
2023/08/20 00:32:55;;;;;;;;;2.50;2.50;;;;;25.10;47.74;101511.44;5081110;27;45346;-66
2023/08/20 00:35:21;;;;;;;;;4.75;3.25;;;;;25.07;48.15;101522.38;5081495;28;45321;-65
2023/08/20 00:37:46;;;;;;;;;2.50;2.00;;;;;25.04;48.29;101522.56;5079448;28;45403;-65
2023/08/20 00:40:11;;;;;;;;;3.50;3.50;;;;;25.01;47.81;101525.47;5081559;27;45418;-65
2023/08/20 00:42:37;;;;;;;;;2.25;2.00;;;;;24.94;48.46;101522.28;5113931;27;45402;-65
2023/08/20 00:45:04;;;;;;;;;2.00;2.00;;;;;24.91;48.29;101520.66;5079807;28;48063;-65
2023/08/20 00:47:29;;;;;;;;;3.00;3.00;;;;;24.90;47.64;101521.59;5079744;28;45319;-66
2023/08/20 00:49:54;;;;;;;;;3.00;2.25;;;;;24.87;48.09;101527.19;5081120;28;45157;-65
2023/08/20 00:52:21;;;;;;;;;2.00;2.00;;;;;24.83;47.95;101525.66;5081206;27;45318;-65
2023/08/20 00:54:47;;;;;;;;;4.50;3.00;;;;;24.79;48.20;101524.97;5079863;28;47411;-66
2023/08/20 00:57:19;;;;;;;;;3.50;2.00;;;;;24.78;47.79;101527.75;5079516;28;45310;-65
2023/08/20 00:59:50;;;;;;;;;7.00;3.00;;;;;24.75;48.41;101533.31;5096795;27;45280;-65
2023/08/20 01:02:17;;;;;;;;;4.00;3.00;;;;;24.73;48.03;101536.13;5080964;28;45306;-65
2023/08/20 01:04:44;;;;;;;;;2.75;2.75;;;;;24.70;48.11;101535.44;5080511;27;45477;-65
2023/08/20 01:07:30;;;;;;;;;3.00;3.00;;;;;24.66;48.32;101535.59;5081126;27;45268;-65
2023/08/20 01:10:10;;;;;;;;;3.25;2.25;;;;;24.64;48.29;101532.16;5065301;28;45499;-65
2023/08/20 01:12:36;;;;;;;;;3.50;3.50;;;;;24.61;47.88;101529.63;5080887;28;45267;-65
2023/08/20 01:15:02;;;;;;;;;2.50;2.00;;;;;24.58;47.86;101521.75;5080014;28;45345;-65
2023/08/20 01:17:27;;;;;;;;;3.50;2.50;;;;;24.56;48.53;101523.66;5080948;28;45361;-65
2023/08/20 01:19:53;;;;;;;;;5.50;5.50;;;;;24.55;48.16;101529.13;5080498;27;45391;-65
2023/08/20 01:22:56;;;;;;;;;4.00;3.00;;;;;24.53;48.01;101529.25;5080902;27;45457;-65
2023/08/20 01:25:42;;;;;;;;;2.50;2.50;;;;;24.46;48.10;101522.50;5079107;28;48203;-65
2023/08/20 01:28:28;;;;;;;;;4.75;4.00;;;;;24.43;48.00;101528.06;5079072;28;45319;-65
2023/08/20 01:30:57;;;;;;;;;3.75;3.00;;;;;24.43;47.80;101528.06;5113378;27;45446;-65
2023/08/20 01:33:24;;;;;;;;;4.00;2.25;;;;;24.42;48.17;101526.34;5078340;28;45364;-65
2023/08/20 01:35:49;;;;;;;;;2.00;1.75;;;;;24.39;48.11;101529.19;5080216;28;46368;-65
2023/08/20 01:38:15;;;;;;;;;3.25;3.25;;;;;24.39;48.26;101539.94;5080426;28;45410;-65
2023/08/20 01:40:40;;;;;;;;;2.25;2.25;;;;;24.36;48.35;101537.44;5080313;27;45304;-65
2023/08/20 01:43:05;;;;;;;;;2.25;2.00;;;;;24.29;48.04;101531.59;5079052;28;45307;-65
2023/08/20 01:45:31;;;;;;;;;4.50;4.00;;;;;24.29;48.61;101529.75;5078815;28;48121;-65
2023/08/20 01:47:56;;;;;;;;;3.75;3.00;;;;;24.29;48.33;101535.13;5080271;27;45469;-65
2023/08/20 01:50:21;;;;;;;;;4.00;4.00;;;;;24.26;48.43;101535.28;5080444;28;45324;-66
2023/08/20 01:52:47;;;;;;;;;2.00;2.00;;;;;24.25;48.52;101528.22;5080372;28;45302;-65
2023/08/20 01:55:13;;;;;;;;;4.00;4.00;;;;;24.23;48.56;101526.59;5095603;27;47178;-65
2023/08/20 01:57:38;;;;;;;;;3.25;2.75;;;;;24.20;48.38;101527.63;5080362;27;45404;-65
2023/08/20 02:00:08;;;;;;;;;3.00;3.00;;;;;24.20;48.66;101529.44;5078744;28;45308;-65
2023/08/20 02:02:34;;;;;;;;;5.00;4.00;;;;;24.18;48.60;101533.06;5080224;27;45243;-65
2023/08/20 02:04:59;;;;;;;;;3.00;3.00;;;;;24.18;48.69;101532.22;5078340;28;48039;-65
2023/08/20 02:07:25;;;;;;;;;6.00;3.00;;;;;24.16;48.46;101536.81;5080052;27;45428;-65
2023/08/20 02:09:50;;;;;;;;;5.25;4.25;;;;;24.11;48.84;101528.16;5066152;28;45307;-65
2023/08/20 02:12:15;;;;;;;;;4.00;3.75;;;;;24.11;48.75;101530.84;5078777;28;45957;-65
2023/08/20 02:14:41;;;;;;;;;4.25;4.00;;;;;24.10;48.60;101537.16;5112447;27;46167;-65
2023/08/20 02:17:08;;;;;;;;;3.00;3.00;;;;;24.08;48.45;101539.09;5079789;27;45321;-65
2023/08/20 02:19:33;;;;;;;;;3.50;3.50;;;;;24.07;48.89;101543.59;5079760;28;45244;-65
2023/08/20 02:21:58;;;;;;;;;2.50;2.50;;;;;24.05;48.71;101541.94;5078357;28;45350;-65
2023/08/20 02:24:24;;;;;;;;;3.75;3.75;;;;;24.05;48.75;101544.63;5079563;27;46035;-65
2023/08/20 02:26:49;;;;;;;;;7.00;3.50;;;;;24.01;48.50;101533.19;5079707;27;45407;-65
2023/08/20 02:29:15;;;;;;;;;3.25;3.25;;;;;24.01;48.83;101539.44;5079906;27;45233;-65
2023/08/20 02:31:40;;;;;;;;;3.50;2.25;;;;;23.98;48.77;101533.41;5079845;28;45230;-65
2023/08/20 02:34:05;;;;;;;;;4.25;3.50;;;;;23.96;48.53;101524.56;5077925;28;47033;-65
2023/08/20 02:36:31;;;;;;;;;3.25;3.25;;;;;23.95;48.86;101526.38;5078098;28;45272;-65
2023/08/20 02:38:56;;;;;;;;;3.50;3.50;;;;;23.92;49.05;101525.69;5078368;28;45324;-65
2023/08/20 02:41:21;;;;;;;;;5.75;5.75;;;;;23.91;48.69;101530.22;5078128;28;45177;-65
2023/08/20 02:43:49;;;;;;;;;3.50;3.50;;;;;23.91;48.83;101531.97;5079465;27;45331;-65
2023/08/20 02:46:14;;;;;;;;;3.50;2.00;;;;;23.89;49.15;101537.44;5080336;28;45896;-65
2023/08/20 02:48:40;;;;;;;;;4.25;3.00;;;;;23.86;48.95;101532.25;5082925;27;45461;-65
2023/08/20 02:51:05;;;;;;;;;3.75;2.50;;;;;23.84;49.11;101532.34;5081802;28;45643;-65
2023/08/20 02:53:30;;;;;;;;;4.00;4.00;;;;;23.83;49.32;101532.44;5082934;27;45307;-65
2023/08/20 02:55:58;;;;;;;;;4.00;4.00;;;;;23.83;49.02;101535.13;5081626;28;45790;-65
2023/08/20 02:58:25;;;;;;;;;4.25;3.25;;;;;23.81;48.99;101531.66;5081905;28;45365;-66
2023/08/20 03:00:50;;;;;;;;;3.00;3.00;;;;;23.80;49.01;101538.84;5081632;28;45497;-65
2023/08/20 03:03:15;;;;;;;;;4.75;3.50;;;;;23.78;49.29;101537.19;5082632;27;45329;-65
2023/08/20 03:05:41;;;;;;;;;2.50;2.50;;;;;23.78;49.44;101529.16;5082924;27;45258;-65
2023/08/20 03:08:07;;;;;;;;;4.25;2.00;;;;;23.73;49.29;101525.88;5080368;28;45375;-65
2023/08/20 03:10:32;;;;;;;;;3.75;3.25;;;;;23.75;49.14;101532.88;5070439;28;45155;-65
2023/08/20 03:13:01;;;;;;;;;3.00;2.75;;;;;23.77;49.31;101535.47;5082742;27;45225;-65
2023/08/20 03:15:30;;;;;;;;;4.25;3.00;;;;;23.72;49.32;101535.72;5082526;27;45421;-65
2023/08/20 03:17:56;;;;;;;;;6.00;4.50;;;;;23.72;49.50;101535.72;5082498;28;45177;-65
2023/08/20 03:20:21;;;;;;;;;1.00;1.00;;;;;23.72;49.22;101522.31;5082665;27;45545;-65
2023/08/20 03:22:46;;;;;;;;;2.25;2.25;;;;;23.71;49.42;101534.00;5082602;27;45410;-65
2023/08/20 03:25:12;;;;;;;;;4.00;2.00;;;;;23.68;49.45;101527.00;5082189;27;45227;-65
2023/08/20 03:27:37;;;;;;;;;3.50;1.50;;;;;23.68;49.52;101532.38;5082629;27;45275;-65
2023/08/20 03:30:04;;;;;;;;;1.25;1.25;;;;;23.68;49.46;101526.13;5115685;27;46103;-65
2023/08/20 03:32:30;;;;;;;;;5.50;3.00;;;;;23.68;49.55;101531.50;5080503;28;46631;-65
2023/08/20 03:34:55;;;;;;;;;2.75;2.75;;;;;23.67;49.47;101532.44;5082060;28;45319;-65
2023/08/20 03:37:21;;;;;;;;;3.00;2.50;;;;;23.64;49.34;101520.06;5082312;28;45503;-65
2023/08/20 03:39:47;;;;;;;;;2.00;2.00;;;;;23.64;49.69;101530.81;5081070;28;45256;-65
2023/08/20 03:42:12;;;;;;;;;3.00;3.00;;;;;23.61;49.34;101528.31;5082162;27;45343;-65
2023/08/20 03:44:37;;;;;;;;;2.50;2.50;;;;;23.60;49.37;101521.19;5081050;27;45351;-65
2023/08/20 03:47:03;;;;;;;;;1.75;1.75;;;;;23.57;49.61;101521.41;5115288;27;45466;-65
2023/08/20 03:49:28;;;;;;;;;5.00;4.00;;;;;23.59;49.24;101524.84;5082070;28;45513;-65
2023/08/20 03:51:53;;;;;;;;;3.00;2.00;;;;;23.54;49.26;101517.03;5114786;27;49606;-65
2023/08/20 03:54:19;;;;;;;;;3.50;3.50;;;;;23.57;49.60;101529.44;5081902;28;51211;-65
2023/08/20 03:56:44;;;;;;;;;2.00;2.00;;;;;23.56;49.53;101533.06;5094431;27;45453;-65
2023/08/20 03:59:09;;;;;;;;;2.25;2.00;;;;;23.54;49.53;101534.97;5071527;28;45157;-65
2023/08/20 04:01:36;;;;;;;;;1.75;1.75;;;;;23.51;49.73;101519.06;5081897;28;46315;-65
2023/08/20 04:04:03;;;;;;;;;2.00;1.50;;;;;23.48;49.59;101533.50;5081859;28;45412;-65
2023/08/20 04:06:28;;;;;;;;;3.00;2.00;;;;;23.50;49.75;101533.41;5082014;27;45244;-65
2023/08/20 04:08:53;;;;;;;;;5.00;3.25;;;;;23.46;49.62;101535.41;5076912;28;45612;-65
2023/08/20 04:11:19;;;;;;;;;2.00;2.00;;;;;23.47;49.75;101541.63;5075930;28;45405;-65
2023/08/20 04:13:45;;;;;;;;;6.00;2.25;;;;;23.43;49.62;101526.66;5081885;27;45374;-65
2023/08/20 04:16:10;;;;;;;;;3.00;2.25;;;;;23.40;49.36;101526.84;5080265;27;45364;-64
2023/08/20 04:18:36;;;;;;;;;3.50;3.00;;;;;23.40;49.77;101540.25;5081542;28;45225;-65
2023/08/20 04:21:01;;;;;;;;;2.00;2.00;;;;;23.39;49.75;101547.41;5081639;27;45491;-65
2023/08/20 04:23:26;;;;;;;;;1.00;1.00;;;;;23.37;49.91;101550.19;5081647;28;45438;-65
2023/08/20 04:25:52;;;;;;;;;2.00;2.00;;;;;23.35;49.66;101549.38;5114275;27;45442;-65
2023/08/20 04:28:18;;;;;;;;;2.75;2.75;;;;;23.36;49.83;101556.50;5080268;28;45375;-65
2023/08/20 04:30:43;;;;;;;;;3.75;2.50;;;;;23.30;49.82;101556.84;5081485;27;45741;-65
2023/08/20 04:33:09;;;;;;;;;3.50;3.50;;;;;23.30;49.79;101569.38;5081353;28;45417;-65
2023/08/20 04:35:35;;;;;;;;;5.00;4.00;;;;;23.24;49.99;101564.34;5114313;27;45249;-65
2023/08/20 04:38:01;;;;;;;;;2.00;2.00;;;;;23.22;49.85;101559.09;5079996;28;45269;-64
2023/08/20 04:40:27;;;;;;;;;2.75;1.00;;;;;23.18;49.68;101566.44;5081159;28;45408;-64
2023/08/20 04:42:52;;;;;;;;;3.25;2.25;;;;;23.18;49.95;101560.19;5079905;28;45189;-65
2023/08/20 04:45:19;;;;;;;;;3.25;2.25;;;;;23.10;49.88;101546.31;5081471;27;45330;-65
2023/08/20 04:47:45;;;;;;;;;5.75;4.25;;;;;23.15;49.63;101563.00;5081198;27;45422;-65
2023/08/20 04:50:10;;;;;;;;;4.50;3.00;;;;;23.13;49.98;101560.41;5081035;28;46296;-64
2023/08/20 04:52:36;;;;;;;;;3.75;2.00;;;;;23.09;49.83;101558.84;5081146;28;45330;-65
2023/08/20 04:55:02;;;;;;;;;2.75;2.75;;;;;23.11;50.44;101562.31;5081158;27;45358;-65
2023/08/20 04:57:28;;;;;;;;;4.25;3.25;;;;;23.10;50.25;101559.72;5081246;27;45324;-65
2023/08/20 04:59:53;;;;;;;;;2.75;2.00;;;;;23.08;50.36;101564.28;5096476;27;46780;-65
2023/08/20 05:02:19;;;;;;;;;4.25;4.25;;;;;23.08;50.20;101572.31;5081091;27;45352;-65
2023/08/20 05:04:44;;;;;;;;;6.00;2.00;;;;;23.07;49.94;101568.78;5079600;28;45335;-65
2023/08/20 05:07:09;;;;;;;;;3.50;2.00;;;;;23.07;50.40;101573.25;5079617;28;45271;-65
2023/08/20 05:09:35;;;;;;;;;3.25;2.75;;;;;23.04;50.12;101576.97;5074788;28;55487;-65
2023/08/20 05:12:01;;;;;;;;;3.50;2.50;;;;;23.02;50.22;101582.44;5080613;28;45262;-65
2023/08/20 05:14:26;;;;;;;;;3.00;2.00;;;;;22.99;50.27;101569.22;5079831;27;45371;-65
2023/08/20 05:16:51;;;;;;;;;4.00;2.25;;;;;23.00;50.19;101575.41;5079369;28;45438;-65
2023/08/20 05:19:17;;;;;;;;;4.75;3.75;;;;;22.99;50.12;101585.28;5080581;27;45934;-65
2023/08/20 05:21:42;;;;;;;;;2.25;2.25;;;;;22.99;50.24;101584.41;5080607;27;45298;-64
2023/08/20 05:24:07;;;;;;;;;2.00;1.75;;;;;22.95;50.35;101578.34;5080848;27;45245;-65
2023/08/20 05:26:34;;;;;;;;;3.25;2.25;;;;;22.95;50.50;101590.88;5080524;27;45578;-65
2023/08/20 05:28:59;;;;;;;;;4.00;3.00;;;;;22.91;50.44;101590.16;5080820;27;45499;-64
2023/08/20 05:31:24;;;;;;;;;2.50;2.50;;;;;22.91;50.39;101589.31;5079238;28;45385;-65
2023/08/20 05:33:50;;;;;;;;;2.75;2.75;;;;;22.90;50.35;101585.75;5080501;27;45518;-65
2023/08/20 05:36:15;;;;;;;;;3.75;3.00;;;;;22.90;50.63;101583.06;5080351;28;45315;-65
2023/08/20 05:38:42;;;;;;;;;4.50;3.25;;;;;22.87;50.51;101584.09;5079040;28;48004;-65
2023/08/20 05:41:08;;;;;;;;;5.00;3.00;;;;;22.88;50.46;101582.31;5099694;27;45646;-65
2023/08/20 05:43:33;;;;;;;;;2.00;2.00;;;;;22.87;50.61;101584.09;5079154;28;45355;-65
2023/08/20 05:45:59;;;;;;;;;4.00;3.00;;;;;22.86;50.45;101585.03;5080169;27;47870;-64
2023/08/20 05:48:24;;;;;;;;;6.00;4.75;;;;;22.88;50.80;101593.03;5080079;27;46195;-65
2023/08/20 05:50:49;;;;;;;;;2.00;2.00;;;;;22.86;50.64;101592.22;5078978;28;45346;-65
2023/08/20 05:53:14;;;;;;;;;3.25;2.75;;;;;22.87;50.57;101592.13;5080093;28;48903;-64
2023/08/20 05:55:40;;;;;;;;;4.00;3.00;;;;;22.86;50.66;101594.91;5079928;28;45460;-65
2023/08/20 05:58:05;;;;;;;;;3.00;3.00;;;;;22.87;50.92;101594.81;5078779;28;48002;-65
2023/08/20 06:00:31;;;;;;;;;3.50;3.00;;;;;22.87;50.49;101600.19;5095901;27;45889;-64
2023/08/20 06:02:56;;;;;;;;;4.25;4.25;;;;;22.88;50.62;101601.06;5112832;27;45295;-65
2023/08/20 06:05:21;;;;;;;;;4.00;2.75;;;;;22.86;50.94;101590.41;5078545;28;45344;-64
2023/08/20 06:07:46;;;;;;;;;3.00;3.00;;;;;22.88;50.99;101596.56;5074791;28;57653;-64
2023/08/20 06:10:12;;;;;;;;;5.50;4.00;;;;;22.90;50.72;101604.50;5064479;28;45241;-65
2023/08/20 06:12:37;;;;;;;;;3.75;2.25;;;;;22.90;50.64;101609.88;5095833;27;45247;-64
2023/08/20 06:15:04;;;;;;;;;4.25;2.25;;;;;22.91;50.85;101611.59;5079494;28;45243;-64
2023/08/20 06:17:29;;;;;;;;;3.50;2.50;;;;;22.90;50.62;101615.22;5079811;28;46399;-65
2023/08/20 06:19:55;;;;;;;;;2.00;2.00;;;;;22.89;50.80;101619.75;5079540;27;45511;-65
2023/08/20 06:22:20;;;;;;;;;4.00;3.75;;;;;22.88;51.24;101623.34;5078934;28;45330;-65
2023/08/20 06:24:45;;;;;;;;;3.00;3.00;;;;;22.89;51.19;101624.22;5079503;27;45388;-64
2023/08/20 06:27:11;;;;;;;;;5.50;4.75;;;;;22.85;51.20;101618.13;5078219;28;47082;-64
2023/08/20 06:29:37;;;;;;;;;4.00;2.25;;;;;22.86;50.97;101621.72;5079617;28;45410;-65
2023/08/20 06:32:02;;;;;;;;;5.50;3.75;;;;;22.85;51.34;101625.31;5080063;28;45419;-65
2023/08/20 06:34:28;;;;;;;;;5.75;4.25;;;;;22.87;51.26;101624.28;5079368;27;45490;-64
2023/08/20 06:36:54;;;;;;;;;4.00;4.00;;;;;22.88;51.11;101625.19;5079576;28;45401;-65
2023/08/20 06:39:19;;;;;;;;;5.50;5.25;;;;;22.86;51.52;101627.91;5078016;28;45297;-64
2023/08/20 06:41:45;;;;;;;;;4.25;4.00;;;;;22.89;51.37;101619.75;5079788;27;45235;-65
2023/08/20 06:44:10;;;;;;;;;6.00;5.00;;;;;22.93;51.34;101628.50;5079489;28;45503;-64
2023/08/20 06:46:36;;;;;;;;;4.00;3.25;;;;;22.97;51.20;101621.16;5079419;27;49516;-64
2023/08/20 06:49:01;;;;;;;;;5.00;3.00;;;;;22.98;51.37;101629.09;5078968;28;50029;-65
2023/08/20 06:51:28;;;;;;;;;5.00;4.25;;;;;23.02;51.30;101637.84;5095192;27;45323;-64
2023/08/20 06:53:54;;;;;;;;;2.50;2.50;;;;;22.99;51.19;101622.81;5079331;28;45312;-64
2023/08/20 06:56:20;;;;;;;;;5.00;4.00;;;;;23.04;51.33;101628.78;5079199;27;47396;-64
2023/08/20 06:58:45;;;;;;;;;5.00;2.00;;;;;23.07;51.48;101634.91;5077770;28;45361;-65
2023/08/20 07:01:12;;;;;;;;;3.75;3.50;;;;;23.09;51.07;101631.19;5079659;28;45306;-64
2023/08/20 07:03:40;;;;;;;;;3.00;3.00;;;;;23.11;51.52;101629.31;5094740;27;45415;-64
2023/08/20 07:06:05;;;;;;;;;20.50;17.00;;;;;23.15;51.49;101638.06;5079112;27;45354;-64
2023/08/20 07:08:31;;;;;;;;;5.75;4.00;;;;;23.16;51.57;101631.78;5065568;28;45399;-64
2023/08/20 07:10:57;;;;;;;;;4.50;4.50;;;;;23.18;51.38;101627.19;5070232;28;45449;-64
2023/08/20 07:13:22;;;;;;;;;7.25;6.00;;;;;23.17;51.47;101622.81;5079122;27;45497;-64
2023/08/20 07:15:48;;;;;;;;;4.00;3.25;;;;;23.25;51.95;101633.97;5079045;28;45224;-64
2023/08/20 07:18:14;;;;;;;;;6.25;4.75;;;;;23.29;51.63;101642.72;5078927;28;45432;-64
2023/08/20 07:20:41;;;;;;;;;5.25;4.00;;;;;23.32;51.58;101648.78;5078023;28;45363;-65
2023/08/20 07:23:07;;;;;;;;;33.25;31.50;;;;;23.35;51.75;101639.72;5077343;28;45523;-65
2023/08/20 07:25:32;;;;;;;;;3.50;3.00;;;;;23.37;51.70;101641.34;5078870;27;45463;-64
2023/08/20 07:27:59;;;;;;;;;3.75;3.50;;;;;23.41;51.81;101641.19;5094560;27;45353;-64
2023/08/20 07:30:25;;;;;;;;;4.50;4.00;;;;;23.42;51.65;101633.06;5078122;28;45372;-64
2023/08/20 07:32:51;;;;;;;;;4.50;4.00;;;;;23.45;51.83;101629.34;5081465;28;45298;-64
2023/08/20 07:35:16;;;;;;;;;6.75;6.00;;;;;23.50;51.90;101627.28;5082253;28;46071;-64
2023/08/20 07:37:41;;;;;;;;;6.00;4.25;;;;;23.53;51.96;101622.63;5082082;27;45192;-64
2023/08/20 07:40:07;;;;;;;;;4.00;4.00;;;;;23.53;52.13;101619.94;5115618;27;45235;-64
2023/08/20 07:42:32;;;;;;;;;3.00;3.00;;;;;23.60;51.87;101631.19;5082169;28;45189;-65
2023/08/20 07:44:58;;;;;;;;;3.00;3.00;;;;;23.61;52.38;101622.19;5082058;28;49016;-64
2023/08/20 07:47:23;;;;;;;;;6.50;5.00;;;;;23.69;52.10;101640.53;5081941;28;45216;-65
2023/08/20 07:49:48;;;;;;;;;4.50;4.00;;;;;23.71;51.93;101644.03;5081137;28;45341;-65
2023/08/20 07:52:14;;;;;;;;;6.75;3.75;;;;;23.74;52.03;101634.94;5097814;27;45524;-65
2023/08/20 07:54:39;;;;;;;;;4.50;4.50;;;;;23.81;52.09;101644.34;5082006;28;46347;-65
2023/08/20 07:57:05;;;;;;;;;6.25;5.00;;;;;23.85;52.15;101646.78;5081893;28;45213;-65
2023/08/20 07:59:30;;;;;;;;;4.00;4.00;;;;;23.89;52.29;101646.63;5082368;27;45739;-65
2023/08/20 08:01:55;;;;;;;;;4.00;4.00;;;;;23.93;52.07;101643.69;5082090;28;45552;-65
2023/08/20 08:04:21;;;;;;;;;6.00;5.50;;;;;23.95;52.46;101644.47;5081805;27;45327;-65
2023/08/20 08:06:46;;;;;;;;;5.00;4.00;;;;;24.02;52.62;101640.50;5081566;28;53162;-65
2023/08/20 08:09:20;;;;;;;;;4.00;4.00;;;;;24.08;52.06;101641.09;5071877;28;45306;-64
2023/08/20 08:11:46;;;;;;;;;3.50;3.50;;;;;24.12;52.23;101639.97;5078126;28;45705;-65
2023/08/20 08:14:11;;;;;;;;;7.00;6.00;;;;;24.16;52.46;101638.84;5081797;27;45366;-65
2023/08/20 08:16:37;;;;;;;;;5.00;5.00;;;;;24.22;52.49;101637.63;5081424;27;45278;-65
2023/08/20 08:19:03;;;;;;;;;9.50;5.50;;;;;24.27;52.46;101636.38;5081832;28;45305;-65
2023/08/20 08:21:28;;;;;;;;;5.00;5.00;;;;;24.33;52.50;101648.63;5081705;28;45450;-65
2023/08/20 08:23:53;;;;;;;;;4.00;4.00;;;;;24.37;52.52;101643.94;5081544;27;46079;-65
2023/08/20 08:26:18;;;;;;;;;6.00;4.00;;;;;24.45;52.74;101655.06;5081543;27;45586;-65
2023/08/20 08:28:44;;;;;;;;;7.75;6.50;;;;;24.49;52.75;101656.66;5080604;28;45406;-65
2023/08/20 08:31:09;;;;;;;;;4.00;4.00;;;;;24.53;52.57;101660.00;5081217;28;51299;-65
2023/08/20 08:33:34;;;;;;;;;2.75;2.00;;;;;24.57;52.92;101661.56;5079899;28;46994;-65
2023/08/20 08:36:00;;;;;;;;;3.25;3.25;;;;;24.63;52.89;101662.06;5114152;27;45770;-65
2023/08/20 08:38:25;;;;;;;;;4.25;3.75;;;;;24.72;52.71;101667.88;5080309;28;45255;-65
2023/08/20 08:40:52;;;;;;;;;4.00;3.75;;;;;24.78;53.06;101662.13;5081130;27;45446;-65
2023/08/20 08:43:18;;;;;;;;;3.50;3.50;;;;;24.81;52.70;101661.94;5081312;27;46157;-65
2023/08/20 08:45:47;;;;;;;;;4.25;4.00;;;;;24.89;52.87;101666.84;5079730;27;45325;-65
2023/08/20 08:48:14;;;;;;;;;6.00;6.00;;;;;24.95;53.15;101663.81;5081297;27;45325;-65
2023/08/20 08:50:39;;;;;;;;;4.50;4.00;;;;;24.98;52.83;101660.91;5081146;28;45253;-65
2023/08/20 08:53:06;;;;;;;;;3.75;3.50;;;;;25.04;53.58;101660.53;5081150;28;46197;-64
2023/08/20 08:55:31;;;;;;;;;4.25;4.25;;;;;25.13;53.06;101667.19;5079666;28;45755;-64
2023/08/20 08:57:56;;;;;;;;;3.25;3.25;;;;;25.20;53.48;101667.69;5068213;28;45236;-65
2023/08/20 09:00:22;;;;;;;;;4.75;4.75;;;;;25.27;53.51;101672.59;5113507;27;45935;-64
2023/08/20 09:02:47;;;;;;;;;5.00;5.00;;;;;25.33;53.02;101665.94;5080728;27;46033;-64
2023/08/20 09:05:14;;;;;;;;;7.00;5.25;;;;;25.38;53.53;101658.50;5079467;28;48916;-64
2023/08/20 09:07:44;;;;;;;;;7.25;6.00;;;;;25.47;52.83;101666.00;5081264;27;45244;-64
2023/08/20 09:10:10;;;;;;;;;7.00;6.00;;;;;25.54;52.93;101661.09;5064925;28;45375;-64
2023/08/20 09:12:35;;;;;;;;;3.75;3.00;;;;;25.59;53.09;101653.59;5079529;28;46819;-65
2023/08/20 09:15:01;;;;;;;;;6.25;5.25;;;;;25.69;53.12;101655.72;5079100;27;46793;-64
2023/08/20 09:17:27;;;;;;;;;5.75;5.50;;;;;25.76;52.95;101646.25;5080910;28;45263;-65
2023/08/20 09:19:56;;;;;;;;;4.50;3.75;;;;;25.83;52.87;101638.66;5065699;28;45555;-64
2023/08/20 09:22:22;;;;;;;;;5.25;5.00;;;;;25.90;53.14;101631.91;5068937;28;45939;-65
2023/08/20 09:24:54;;;;;;;;;6.50;5.00;;;;;25.99;53.37;101630.44;5078681;28;45322;-64
2023/08/20 09:27:20;;;;;;;;;5.25;5.00;;;;;26.06;53.43;101621.91;5113719;27;45307;-65
2023/08/20 09:29:59;;;;;;;;;5.50;5.25;;;;;26.10;52.75;101623.44;5079145;28;45358;-65
2023/08/20 09:32:26;;;;;;;;;5.00;4.00;;;;;26.23;53.02;101622.63;5080305;28;46477;-65
2023/08/20 09:34:55;;;;;;;;;6.75;6.00;;;;;26.34;52.99;101627.25;5080442;28;45172;-64
2023/08/20 09:37:22;;;;;;;;;4.25;4.00;;;;;26.42;53.06;101628.47;5079021;28;45437;-65
2023/08/20 09:39:48;;;;;;;;;6.50;4.25;;;;;26.51;52.73;101632.38;5080564;28;45307;-64
2023/08/20 09:42:14;;;;;;;;;3.50;3.50;;;;;26.63;52.98;101644.16;5080099;27;46391;-65
2023/08/20 09:44:41;;;;;;;;;3.25;3.25;;;;;26.73;52.92;101636.31;5079142;28;45846;-64
2023/08/20 09:47:08;;;;;;;;;4.00;4.00;;;;;26.84;52.70;101632.91;5080241;28;45251;-65
2023/08/20 09:49:45;;;;;;;;;5.50;4.50;;;;;26.95;52.91;101638.41;5080231;28;45224;-64
2023/08/20 09:52:15;;;;;;;;;6.00;4.75;;;;;27.07;52.60;101634.00;5080091;27;46149;-65
2023/08/20 09:54:57;;;;;;;;;4.50;4.00;;;;;27.22;52.32;101635.63;5079659;28;45460;-64
2023/08/20 09:57:35;;;;;;;;;6.00;3.75;;;;;27.41;52.79;101639.75;5100598;27;45308;-64
2023/08/20 10:00:01;;;;;;;;;4.00;4.00;;;;;27.60;52.74;101630.28;5080011;27;45548;-64
2023/08/20 10:02:26;;;;;;;;;4.50;4.00;;;;;27.76;52.75;101627.34;5079895;27;45363;-65
2023/08/20 10:04:52;;;;;;;;;3.75;3.75;;;;;28.04;53.13;101631.59;5079740;27;45197;-64
2023/08/20 10:07:18;;;;;;;;;4.00;4.00;;;;;28.29;52.54;101627.03;5080348;28;45256;-65
2023/08/20 10:09:45;;;;;;;;;4.25;4.25;;;;;28.59;52.78;101634.66;5066194;28;45540;-65
2023/08/20 10:12:13;;;;;;;;;4.00;3.75;;;;;28.93;52.71;101639.31;5078423;28;47132;-64
2023/08/20 10:14:39;;;;;;;;;4.00;3.50;;;;;29.28;52.55;101625.75;5078248;28;45516;-64
2023/08/20 10:17:11;;;;;;;;;2.25;2.25;;;;;29.64;52.55;101633.72;5080067;27;45574;-64
2023/08/20 10:19:37;;;;;;;;;4.00;4.00;;;;;30.05;52.39;101636.72;5079619;28;45498;-64
2023/08/20 10:22:04;;;;;;;;;3.25;3.25;;;;;30.44;51.89;101637.06;5112579;27;47753;-64
2023/08/20 10:24:40;;;;;;;;;3.25;3.25;;;;;30.81;51.88;101620.38;5095500;27;45472;-64
2023/08/20 10:27:10;;;;;;;;;6.25;6.25;;;;;31.26;50.64;101627.38;5079729;27;45414;-64
2023/08/20 10:29:39;;;;;;;;;2.50;2.00;;;;;31.64;50.49;101633.09;5079494;27;45503;-64
2023/08/20 10:32:10;;;;;;;;;4.50;4.00;;;;;31.99;50.60;101626.28;5079740;27;45550;-64
2023/08/20 10:34:40;;;;;;;;;4.00;4.00;;;;;32.32;50.71;101635.09;5079156;27;45392;-64
2023/08/20 10:37:15;;;;;;;;;3.50;3.50;;;;;32.64;49.93;101633.91;5078272;28;45445;-64
2023/08/20 10:39:44;;;;;;;;;3.25;2.50;;;;;32.91;49.40;101635.88;5079680;28;45490;-64
2023/08/20 10:42:19;;;;;;;;;4.25;3.00;;;;;33.16;48.83;101630.81;5077867;28;47022;-65
2023/08/20 10:45:00;;;;;;;;;3.25;3.25;;;;;33.38;48.76;101635.91;5079603;28;45340;-64
2023/08/20 10:47:35;;;;;;;;;4.00;4.00;;;;;33.59;48.10;101642.09;5077826;28;45268;-64
2023/08/20 10:50:02;;;;;;;;;2.00;2.00;;;;;33.78;47.83;101639.25;5079354;27;45172;-64
2023/08/20 10:52:27;;;;;;;;;4.25;4.25;;;;;34.02;47.77;101632.38;5079424;28;45486;-64
2023/08/20 10:54:52;;;;;;;;;3.25;2.25;;;;;34.23;46.84;101626.63;5079171;28;45327;-64
2023/08/20 10:57:21;;;;;;;;;5.00;3.75;;;;;34.44;46.69;101628.19;5078279;28;45295;-64
2023/08/20 10:59:57;;;;;;;;;3.25;3.25;;;;;34.68;46.25;101622.06;5079518;28;45395;-64
2023/08/20 11:02:23;;;;;;;;;5.75;2.75;;;;;34.92;45.34;101624.13;5078985;27;45334;-64
2023/08/20 11:04:48;;;;;;;;;4.25;3.25;;;;;35.16;45.10;101622.56;5079259;27;45297;-63
2023/08/20 11:07:17;;;;;;;;;4.75;4.50;;;;;35.41;45.01;101619.94;5114552;27;45238;-63
2023/08/20 11:09:44;;;;;;;;;4.75;4.25;;;;;35.67;44.34;101625.34;5082935;27;45323;-63
2023/08/20 11:12:10;;;;;;;;;3.00;3.00;;;;;35.89;44.16;101621.16;5082457;28;46090;-63
2023/08/20 11:14:35;;;;;;;;;3.50;3.50;;;;;36.13;43.42;101630.41;5082996;28;45415;-63
2023/08/20 11:17:01;;;;;;;;;3.00;3.00;;;;;36.42;43.62;101623.63;5082871;27;45396;-63
2023/08/20 11:19:28;;;;;;;;;2.75;2.75;;;;;36.73;43.50;101626.50;5082520;28;45459;-63
2023/08/20 11:21:54;;;;;;;;;4.00;3.50;;;;;37.06;43.45;101628.34;5082644;27;46306;-63